Home > Products > Valid Products > MTR

000
SAUS44 KSJT 200457
MTRSJT

METAR KSJT 200451Z AUTO 14004KT 10SM CLR 21/13 A3005 RMK AO2 SLP156
T02110128 LOCAL USE ONLY








    US Dept of Commerce
    National Oceanic and Atmospheric Administration
    National Weather Service
    1325 East West Highway
    Silver Spring, MD 20910
    Page Author: NWS Internet Services Team
Disclaimer
Information Quality
Credits
Glossary
Privacy Policy
Freedom of Information Act (FOIA)
About Us
Career Opportunities